createdAt,value
2022-10-22T00:10:04.612Z,18.4
2022-10-22T00:40:04.765Z,18.3
2022-10-22T01:10:04.778Z,18.3
2022-10-22T01:40:06.323Z,18.2
2022-10-22T02:15:05.402Z,18.2
2022-10-22T02:30:03.503Z,18.2
2022-10-22T03:00:06.293Z,18.1
2022-10-22T03:20:02.897Z,18.1
2022-10-22T03:50:06.564Z,18.2
2022-10-22T04:05:03.488Z,18.2
2022-10-22T04:20:04.849Z,18.3
2022-10-22T04:50:06.518Z,18.4
2022-10-22T05:10:02.635Z,18.3
2022-10-22T05:25:05.490Z,18.3
2022-10-22T05:55:02.471Z,18.2
2022-10-22T06:25:03.752Z,18.2
2022-10-22T07:00:06.701Z,18.2
2022-10-22T07:15:02.761Z,18.1
2022-10-22T07:45:03.679Z,18.2
2022-10-22T08:00:02.529Z,18.3
2022-10-22T08:30:05.861Z,18.4
2022-10-22T08:45:06.349Z,18.4
2022-10-22T09:20:05.404Z,18.4
2022-10-22T09:50:04.454Z,18.3
2022-10-22T10:20:03.360Z,18.2
2022-10-22T10:50:05.629Z,18.2
2022-10-22T11:25:02.623Z,18.2
2022-10-22T11:40:06.504Z,18.2
2022-10-22T12:10:02.883Z,18.2
2022-10-22T12:25:04.698Z,18.3
2022-10-22T12:40:03.516Z,18.3
2022-10-22T12:55:03.782Z,18.3
2022-10-22T13:10:05.443Z,18.4
2022-10-22T13:45:04.529Z,18.4
2022-10-22T14:05:04.895Z,18.3
2022-10-22T14:20:04.555Z,18.3
2022-10-22T14:35:04.694Z,18.3
2022-10-22T14:55:05.560Z,18.2
2022-10-22T15:30:03.589Z,18.2
2022-10-22T15:45:03.855Z,18.1
2022-10-22T16:05:07.401Z,18.1
2022-10-22T16:35:05.708Z,18
2022-10-22T17:05:04.538Z,17.9
2022-10-22T17:20:02.635Z,17.9
2022-10-22T17:50:05.425Z,17.8
2022-10-22T18:25:06.551Z,17.8
2022-10-22T18:55:03.886Z,17.7
2022-10-22T19:15:02.868Z,17.7
2022-10-22T20:00:02.830Z,17.7
2022-10-22T20:30:02.665Z,17.7
2022-10-22T21:00:06.456Z,17.7
2022-10-22T21:30:02.880Z,17.6
2022-10-22T21:50:04.381Z,17.6
2022-10-22T22:20:03.609Z,17.6
2022-10-22T22:35:03.422Z,17.5
2022-10-22T23:05:05.699Z,17.5
2022-10-22T23:40:04.765Z,17.6
